createdAt,value
2022-12-11T00:00:05.171Z,22.70
2022-12-11T00:05:26.899Z,22.20
2022-12-11T00:10:49.674Z,23.80
2022-12-11T00:16:11.729Z,24.07
2022-12-11T00:21:34.149Z,21.43
2022-12-11T00:26:56.070Z,24.17
2022-12-11T00:32:17.785Z,25.77
2022-12-11T00:37:39.576Z,26.57
2022-12-11T00:43:01.349Z,28.67
2022-12-11T00:48:23.096Z,24.40
2022-12-11T00:53:44.912Z,27.40
2022-12-11T00:59:06.760Z,25.17
2022-12-11T01:04:28.517Z,27.03
2022-12-11T01:10:08.724Z,24.43
2022-12-11T01:15:48.493Z,23.10
2022-12-11T01:21:13.284Z,26.80
2022-12-11T01:26:35.041Z,26.13
2022-12-11T01:31:56.845Z,21.43
2022-12-11T01:37:18.573Z,22.27
2022-12-11T01:42:40.566Z,22.17
2022-12-11T01:48:14.495Z,22.80
2022-12-11T01:53:43.380Z,25.00
2022-12-11T01:59:07.882Z,25.37
2022-12-11T02:04:30.943Z,27.50
2022-12-11T02:09:52.763Z,27.43
2022-12-11T02:15:26.490Z,28.13
2022-12-11T02:21:03.002Z,27.07
2022-12-11T02:26:58.864Z,24.93
2022-12-11T02:32:26.137Z,19.97
2022-12-11T02:37:51.768Z,19.03
2022-12-11T02:48:41.652Z,17.70
2022-12-11T02:54:06.773Z,18.10
2022-12-11T02:59:41.532Z,15.30
2022-12-11T03:05:03.673Z,16.30
2022-12-11T03:10:25.513Z,15.20
2022-12-11T03:15:59.098Z,17.10
2022-12-11T03:21:32.695Z,17.73
2022-12-11T03:26:57.319Z,18.10
2022-12-11T03:32:25.465Z,16.20
2022-12-11T03:37:49.794Z,17.90
2022-12-11T03:43:11.984Z,15.80
2022-12-11T03:48:38.110Z,18.60
2022-12-11T03:54:00.370Z,19.87
2022-12-11T03:59:22.458Z,19.70
2022-12-11T04:04:44.220Z,20.07
2022-12-11T04:10:06.098Z,20.10
2022-12-11T04:15:27.824Z,19.77
2022-12-11T04:21:08.443Z,18.03
2022-12-11T04:26:30.191Z,16.37
2022-12-11T04:31:51.954Z,20.77
2022-12-11T04:37:13.672Z,17.30
2022-12-11T04:42:35.557Z,16.27
2022-12-11T04:47:57.332Z,17.77
2022-12-11T04:53:19.341Z,16.57
2022-12-11T04:58:42.702Z,23.33
2022-12-11T05:04:04.550Z,16.20
2022-12-11T05:09:27.144Z,16.13
2022-12-11T05:14:52.963Z,17.23
2022-12-11T05:20:15.066Z,17.37
2022-12-11T05:25:36.942Z,17.20
2022-12-11T05:31:00.792Z,15.60
2022-12-11T05:36:32.046Z,18.40
2022-12-11T05:41:53.804Z,19.03
2022-12-11T05:47:15.520Z,18.57
2022-12-11T05:52:37.338Z,16.37
2022-12-11T05:57:59.077Z,17.50
2022-12-11T06:03:20.831Z,14.83
2022-12-11T06:08:42.796Z,17.23
2022-12-11T06:14:04.728Z,32.00
2022-12-11T06:19:26.471Z,19.13
2022-12-11T06:24:48.174Z,22.77
2022-12-11T06:30:10.459Z,25.17
2022-12-11T06:35:34.237Z,21.87
2022-12-11T06:41:02.580Z,22.70
2022-12-11T06:46:24.344Z,23.47
2022-12-11T06:51:46.133Z,22.03
2022-12-11T06:57:09.576Z,24.30
2022-12-11T07:02:31.704Z,26.10
2022-12-11T07:07:54.761Z,22.87
2022-12-11T07:13:16.633Z,21.80
2022-12-11T07:18:40.566Z,21.37
2022-12-11T07:24:02.503Z,23.13
2022-12-11T07:29:24.506Z,21.63
2022-12-11T07:34:51.571Z,21.23
2022-12-11T07:40:14.224Z,19.77
2022-12-11T07:45:35.991Z,25.17
2022-12-11T07:51:17.709Z,25.73
2022-12-11T07:56:43.657Z,21.53
2022-12-11T08:02:06.113Z,21.10
2022-12-11T08:07:27.897Z,25.20
2022-12-11T08:12:49.639Z,21.00
2022-12-11T08:18:11.410Z,21.30
2022-12-11T08:23:33.538Z,23.57
2022-12-11T08:28:56.018Z,23.83
2022-12-11T08:34:17.753Z,20.50
2022-12-11T08:39:39.713Z,24.73
2022-12-11T08:45:01.441Z,19.90
2022-12-11T08:50:23.235Z,21.07
2022-12-11T08:55:45.029Z,20.70
2022-12-11T09:01:13.671Z,21.20
2022-12-11T09:06:35.672Z,21.07
2022-12-11T09:11:57.448Z,24.80
2022-12-11T09:17:19.277Z,26.73
2022-12-11T09:22:42.804Z,22.90
2022-12-11T09:28:04.659Z,25.70
2022-12-11T09:33:26.469Z,21.43
2022-12-11T09:38:48.482Z,21.03
2022-12-11T09:44:28.701Z,23.27
2022-12-11T09:49:56.859Z,24.23
2022-12-11T09:55:24.702Z,26.60
2022-12-11T10:01:01.474Z,25.30
2022-12-11T10:06:35.790Z,26.20
2022-12-11T10:11:57.506Z,25.63
2022-12-11T10:17:23.427Z,33.53
2022-12-11T10:22:45.902Z,25.33
2022-12-11T10:28:16.067Z,26.53
2022-12-11T10:33:40.733Z,28.87
2022-12-11T10:39:04.074Z,28.30
2022-12-11T10:44:31.118Z,26.50
2022-12-11T10:49:52.811Z,26.93
2022-12-11T10:55:22.592Z,26.90
2022-12-11T11:00:45.883Z,25.77
2022-12-11T11:06:17.413Z,28.00
2022-12-11T11:11:39.643Z,27.77
2022-12-11T11:17:01.425Z,26.13
2022-12-11T11:22:23.271Z,23.87
2022-12-11T11:27:57.711Z,25.10
2022-12-11T11:33:22.325Z,27.27
2022-12-11T11:39:03.784Z,25.37
2022-12-11T11:44:32.075Z,26.27
2022-12-11T11:50:08.405Z,28.40
2022-12-11T11:55:53.899Z,23.13
2022-12-11T12:01:19.422Z,23.57
2022-12-11T12:06:57.833Z,24.37
2022-12-11T12:13:01.252Z,26.37
2022-12-11T12:18:23.022Z,24.37
2022-12-11T12:23:59.973Z,24.07
2022-12-11T12:29:40.495Z,24.10
2022-12-11T12:35:17.231Z,26.10
2022-12-11T12:40:55.987Z,28.83
2022-12-11T12:46:20.497Z,28.87
2022-12-11T12:51:44.357Z,32.87
2022-12-11T12:57:06.826Z,30.10
2022-12-11T13:02:29.833Z,33.27
2022-12-11T13:07:55.413Z,25.27
2022-12-11T13:13:32.565Z,28.87
2022-12-11T13:18:54.720Z,28.10
2022-12-11T13:24:26.043Z,29.00
2022-12-11T13:29:47.976Z,26.40
2022-12-11T13:35:16.321Z,25.63
2022-12-11T13:40:44.359Z,32.40
2022-12-11T13:46:11.309Z,35.87
2022-12-11T13:51:36.083Z,33.40
2022-12-11T13:56:57.843Z,29.57
2022-12-11T14:02:25.695Z,29.57
2022-12-11T14:07:57.227Z,31.80
2022-12-11T14:13:23.454Z,30.83
2022-12-11T14:18:45.405Z,32.10
2022-12-11T14:24:12.666Z,33.07
2022-12-11T14:29:34.394Z,36.20
2022-12-11T14:34:57.179Z,36.40
2022-12-11T14:40:22.572Z,34.90
2022-12-11T14:45:48.662Z,34.73
2022-12-11T14:51:14.987Z,36.30
2022-12-11T14:56:37.379Z,37.03
2022-12-11T15:02:02.090Z,33.40
2022-12-11T15:07:24.363Z,32.70
2022-12-11T15:12:46.473Z,32.73
2022-12-11T15:18:20.664Z,30.87
2022-12-11T15:23:54.573Z,30.50
2022-12-11T15:29:30.422Z,36.07
2022-12-11T15:34:56.307Z,33.13
2022-12-11T15:40:18.081Z,35.93
2022-12-11T15:45:39.866Z,38.63
2022-12-11T15:51:01.666Z,35.03
2022-12-11T15:56:23.478Z,36.63
2022-12-11T16:01:45.373Z,37.93
2022-12-11T16:07:16.498Z,35.97
2022-12-11T16:12:38.240Z,42.03
2022-12-11T16:18:06.013Z,44.63
2022-12-11T16:23:29.429Z,44.10
2022-12-11T16:28:51.178Z,44.57
2022-12-11T16:34:12.964Z,49.97
2022-12-11T16:39:36.916Z,45.83
2022-12-11T16:45:06.086Z,45.53
2022-12-11T16:50:27.834Z,50.33
2022-12-11T16:55:49.701Z,49.27
2022-12-11T17:01:12.896Z,51.77
2022-12-11T17:06:34.738Z,57.77
2022-12-11T17:11:56.518Z,52.77
2022-12-11T17:17:18.293Z,51.70
2022-12-11T17:22:40.145Z,43.90
2022-12-11T17:28:01.893Z,48.33
2022-12-11T17:33:24.101Z,48.33
2022-12-11T17:38:48.290Z,43.57
2022-12-11T17:44:10.401Z,45.47
2022-12-11T17:49:32.611Z,44.50
2022-12-11T17:54:54.375Z,46.23
2022-12-11T18:00:16.382Z,44.07
2022-12-11T18:05:46.675Z,47.07
2022-12-11T18:11:12.200Z,44.13
2022-12-11T18:16:36.773Z,44.73
2022-12-11T18:21:58.555Z,44.47
2022-12-11T18:27:20.308Z,46.67
2022-12-11T18:32:43.946Z,46.13
2022-12-11T18:38:05.895Z,50.57
2022-12-11T18:43:27.640Z,43.03
2022-12-11T18:48:50.648Z,41.10
2022-12-11T18:54:12.466Z,42.53
2022-12-11T18:59:34.358Z,39.70
2022-12-11T19:04:56.077Z,43.93
2022-12-11T19:10:17.886Z,41.77
2022-12-11T19:15:41.896Z,47.17
2022-12-11T19:21:09.475Z,40.53
2022-12-11T19:26:31.286Z,44.80
2022-12-11T19:31:55.122Z,43.43
2022-12-11T19:37:16.943Z,45.40
2022-12-11T19:42:38.696Z,54.50
2022-12-11T19:48:00.535Z,50.77
2022-12-11T19:53:22.353Z,47.73
2022-12-11T19:58:44.981Z,50.27
2022-12-11T20:04:10.213Z,47.87
2022-12-11T20:09:33.617Z,47.37
2022-12-11T20:14:55.405Z,55.47
2022-12-11T20:20:17.258Z,46.80
2022-12-11T20:25:40.380Z,47.03
2022-12-11T20:31:16.376Z,39.77
2022-12-11T20:36:41.523Z,42.47
2022-12-11T20:42:04.989Z,40.20
2022-12-11T20:47:26.789Z,39.23
2022-12-11T20:52:48.533Z,43.57
2022-12-11T20:58:11.441Z,40.83
2022-12-11T21:03:40.404Z,40.57
2022-12-11T21:09:07.070Z,44.60
2022-12-11T21:14:30.496Z,42.67
2022-12-11T21:19:52.632Z,44.67
2022-12-11T21:25:14.672Z,40.23
2022-12-11T21:30:40.113Z,43.77
2022-12-11T21:36:02.365Z,39.90
2022-12-11T21:41:25.036Z,39.37
2022-12-11T21:46:46.785Z,39.97
2022-12-11T21:52:09.221Z,42.97
2022-12-11T21:57:31.251Z,38.37
2022-12-11T22:02:53.103Z,38.37
2022-12-11T22:08:15.712Z,37.50
2022-12-11T22:13:37.587Z,42.33
2022-12-11T22:18:59.878Z,40.73
2022-12-11T22:24:21.602Z,41.93
2022-12-11T22:29:43.409Z,42.70
2022-12-11T22:35:05.457Z,42.90
2022-12-11T22:40:27.601Z,40.10
2022-12-11T22:45:49.448Z,40.03
2022-12-11T22:51:11.675Z,38.97
2022-12-11T22:56:33.419Z,36.50
2022-12-11T23:01:55.258Z,39.97
2022-12-11T23:07:16.994Z,38.37
2022-12-11T23:12:38.759Z,35.93
2022-12-11T23:18:00.550Z,36.43
2022-12-11T23:23:22.321Z,34.70
2022-12-11T23:28:45.073Z,40.33
2022-12-11T23:34:06.905Z,37.60
2022-12-11T23:39:28.861Z,39.53
2022-12-11T23:44:50.710Z,32.87
2022-12-11T23:50:12.461Z,33.20
2022-12-11T23:55:34.563Z,35.30
